Time;durP1;ratioP1;P1;durP2;ratioP2;P2;SDS_P1;SDS_P2;PMS_P1;PMS_P2;Temp;Humidity;BMP_temperature;BMP_pressure;BME280_temperature;BME280_humidity;BME280_pressure;Samples;Min_cycle;Max_cycle;Signal;HPM_P1;HPM_P2
2022/08/04 00:00:33;;;;;;;15.65;7.55;;;;;;;;;;3318322;42;20093;-57
2022/08/04 00:03:25;;;;;;;17.85;7.95;;;;;;;;;;3323706;42;20158;-57
2022/08/04 00:06:05;;;;;;;17.73;7.90;;;;;;;;;;3324772;42;20100;-58
2022/08/04 00:08:49;;;;;;;19.50;8.13;;;;;;;;;;3327553;42;20555;-55
2022/08/04 00:11:25;;;;;;;18.57;8.47;;;;;;;;;;3325871;42;20089;-56
2022/08/04 00:13:56;;;;;;;16.63;7.53;;;;;;;;;;3330253;42;20089;-56
2022/08/04 00:16:23;;;;;;;17.80;8.40;;;;;;;;;;3339017;42;20097;-56
2022/08/04 00:18:55;;;;;;;16.05;7.50;;;;;;;;;;3326716;42;20755;-60
2022/08/04 00:21:22;;;;;;;16.13;7.63;;;;;;;;;;3339348;42;20092;-57
2022/08/04 00:23:48;;;;;;;16.20;7.33;;;;;;;;;;3329571;42;20093;-58
2022/08/04 00:26:15;;;;;;;16.42;7.43;;;;;;;;;;3336531;42;20101;-58
2022/08/04 00:28:41;;;;;;;17.00;7.43;;;;;;;;;;3342705;42;20101;-56
2022/08/04 00:31:09;;;;;;;15.38;7.72;;;;;;;;;;3332020;42;20136;-58
2022/08/04 00:33:38;;;;;;;17.40;8.40;;;;;;;;;;3329057;42;20096;-55
2022/08/04 00:36:05;;;;;;;15.43;7.40;;;;;;;;;;3323776;42;20743;-56
2022/08/04 00:38:31;;;;;;;16.58;8.07;;;;;;;;;;3317436;42;20159;-56
2022/08/04 00:41:00;;;;;;;15.95;8.27;;;;;;;;;;3327713;42;20084;-58
2022/08/04 00:43:54;;;;;;;15.38;7.53;;;;;;;;;;3334324;42;20097;-57
2022/08/04 00:46:58;;;;;;;15.60;8.02;;;;;;;;;;3327282;42;20514;-58
2022/08/04 00:49:27;;;;;;;14.57;7.40;;;;;;;;;;3309513;43;20082;-58
2022/08/04 00:52:12;;;;;;;15.10;7.35;;;;;;;;;;3299905;43;20083;-57
2022/08/04 00:54:47;;;;;;;12.50;7.22;;;;;;;;;;3316633;42;20089;-57
2022/08/04 00:57:27;;;;;;;15.05;7.60;;;;;;;;;;3333279;42;20092;-58
2022/08/04 01:00:22;;;;;;;15.13;7.90;;;;;;;;;;3326035;42;20093;-57
2022/08/04 01:03:05;;;;;;;17.90;7.93;;;;;;;;;;3342810;42;20156;-57
2022/08/04 01:05:47;;;;;;;14.55;7.55;;;;;;;;;;3325334;42;20116;-55
2022/08/04 01:08:39;;;;;;;14.55;7.63;;;;;;;;;;3330149;42;20081;-54
2022/08/04 01:11:24;;;;;;;16.35;7.03;;;;;;;;;;3320297;42;20081;-57
2022/08/04 01:14:13;;;;;;;13.38;6.97;;;;;;;;;;3326021;42;20097;-57
2022/08/04 01:16:51;;;;;;;14.63;7.37;;;;;;;;;;3328171;42;20129;-58
2022/08/04 01:19:33;;;;;;;17.63;7.25;;;;;;;;;;3332127;42;20096;-59
2022/08/04 01:22:02;;;;;;;16.65;7.80;;;;;;;;;;3330532;42;20081;-59
2022/08/04 01:25:06;;;;;;;13.27;7.30;;;;;;;;;;3338231;42;20089;-57
2022/08/04 01:27:57;;;;;;;15.52;7.85;;;;;;;;;;3316679;42;20089;-58
2022/08/04 01:30:24;;;;;;;16.33;8.00;;;;;;;;;;3332413;42;20112;-59
2022/08/04 01:33:07;;;;;;;15.65;7.65;;;;;;;;;;3325517;42;20101;-58
2022/08/04 01:35:42;;;;;;;15.45;8.05;;;;;;;;;;3314338;42;20085;-58
2022/08/04 01:38:28;;;;;;;17.27;7.80;;;;;;;;;;3333520;42;20096;-58
2022/08/04 01:40:58;;;;;;;14.98;7.25;;;;;;;;;;3327301;42;20602;-58
2022/08/04 01:43:27;;;;;;;18.57;8.07;;;;;;;;;;3328175;42;20115;-57
2022/08/04 01:45:57;;;;;;;16.20;7.43;;;;;;;;;;3331732;42;20093;-57
2022/08/04 01:48:25;;;;;;;12.68;7.22;;;;;;;;;;3336931;42;20097;-57
2022/08/04 01:50:52;;;;;;;14.38;7.30;;;;;;;;;;3323734;42;20669;-58
2022/08/04 01:53:19;;;;;;;14.13;7.60;;;;;;;;;;3330156;42;20101;-58
2022/08/04 01:55:47;;;;;;;16.27;7.33;;;;;;;;;;3338783;42;20104;-57
2022/08/04 01:58:16;;;;;;;14.13;7.45;;;;;;;;;;3331069;42;20101;-55
2022/08/04 02:00:48;;;;;;;15.23;7.50;;;;;;;;;;3330499;42;20130;-58
2022/08/04 02:03:15;;;;;;;15.23;7.35;;;;;;;;;;3325313;42;20088;-55
2022/08/04 02:05:41;;;;;;;15.93;7.40;;;;;;;;;;3330716;42;20172;-56
2022/08/04 02:08:16;;;;;;;16.27;7.50;;;;;;;;;;3312904;42;20091;-57
2022/08/04 02:10:54;;;;;;;15.75;7.20;;;;;;;;;;3332209;42;20155;-58
2022/08/04 02:13:27;;;;;;;14.35;6.78;;;;;;;;;;3327305;42;20107;-58
2022/08/04 02:16:09;;;;;;;13.52;6.82;;;;;;;;;;3326745;42;20085;-58
2022/08/04 02:18:48;;;;;;;12.23;7.25;;;;;;;;;;3327780;42;20077;-57
2022/08/04 02:21:14;;;;;;;14.40;7.10;;;;;;;;;;3331831;42;20100;-58
2022/08/04 02:23:41;;;;;;;12.23;7.03;;;;;;;;;;3331937;42;20089;-58
2022/08/04 02:26:16;;;;;;;14.52;7.18;;;;;;;;;;3332534;42;20085;-58
2022/08/04 02:29:21;;;;;;;19.30;7.65;;;;;;;;;;3318480;42;20343;-58
2022/08/04 02:32:04;;;;;;;13.00;7.22;;;;;;;;;;3336314;42;20153;-57
2022/08/04 02:34:51;;;;;;;13.23;7.07;;;;;;;;;;3329779;42;20152;-58
2022/08/04 02:37:17;;;;;;;13.70;7.50;;;;;;;;;;3328718;42;20081;-57
2022/08/04 02:39:44;;;;;;;14.15;7.60;;;;;;;;;;3329225;42;20093;-59
2022/08/04 02:42:11;;;;;;;12.95;7.28;;;;;;;;;;3327669;42;20101;-58
2022/08/04 02:44:38;;;;;;;13.32;7.30;;;;;;;;;;3324929;42;20550;-58
2022/08/04 02:47:05;;;;;;;12.47;7.50;;;;;;;;;;3327171;42;20097;-56
2022/08/04 02:49:35;;;;;;;14.13;7.10;;;;;;;;;;3339891;42;20104;-57
2022/08/04 02:52:01;;;;;;;14.07;7.43;;;;;;;;;;3340671;42;20081;-58
2022/08/04 02:54:31;;;;;;;14.43;7.55;;;;;;;;;;3325145;42;20085;-57
2022/08/04 02:56:57;;;;;;;12.70;7.53;;;;;;;;;;3328668;42;20095;-57
2022/08/04 02:59:25;;;;;;;13.57;7.67;;;;;;;;;;3324598;42;20131;-56
2022/08/04 03:01:55;;;;;;;16.02;7.60;;;;;;;;;;3327882;42;20093;-56
2022/08/04 03:04:25;;;;;;;13.60;7.65;;;;;;;;;;3326648;42;20551;-57
2022/08/04 03:07:09;;;;;;;15.73;7.28;;;;;;;;;;3330036;42;20081;-58
2022/08/04 03:09:53;;;;;;;13.25;7.60;;;;;;;;;;3333911;42;20104;-59
2022/08/04 03:12:51;;;;;;;17.43;7.43;;;;;;;;;;3339892;42;20084;-58
2022/08/04 03:15:29;;;;;;;16.02;7.82;;;;;;;;;;3323551;42;20093;-58
2022/08/04 03:18:13;;;;;;;14.30;8.07;;;;;;;;;;3331138;42;20084;-57
2022/08/04 03:21:13;;;;;;;13.75;7.68;;;;;;;;;;3335094;42;20089;-58
2022/08/04 03:24:01;;;;;;;13.68;7.70;;;;;;;;;;3329164;42;20563;-57
2022/08/04 03:26:27;;;;;;;13.03;6.93;;;;;;;;;;3330618;42;20084;-58
2022/08/04 03:29:11;;;;;;;22.98;8.30;;;;;;;;;;3334996;42;20098;-59
2022/08/04 03:32:05;;;;;;;13.30;7.70;;;;;;;;;;3329672;42;20609;-57
2022/08/04 03:34:31;;;;;;;16.27;7.78;;;;;;;;;;3340988;42;20100;-57
2022/08/04 03:37:36;;;;;;;12.13;7.97;;;;;;;;;;3337449;42;20085;-58
2022/08/04 03:40:20;;;;;;;15.43;7.73;;;;;;;;;;3337366;42;20609;-57
2022/08/04 03:42:55;;;;;;;19.08;7.80;;;;;;;;;;3330473;42;20535;-57
2022/08/04 03:45:27;;;;;;;15.80;8.05;;;;;;;;;;3343369;42;20089;-56
2022/08/04 03:47:56;;;;;;;13.95;8.15;;;;;;;;;;3330304;42;20093;-57
2022/08/04 03:50:25;;;;;;;14.35;7.82;;;;;;;;;;3339236;42;20095;-57
2022/08/04 03:53:19;;;;;;;14.27;8.20;;;;;;;;;;3340070;42;20136;-58
2022/08/04 03:56:06;;;;;;;14.20;7.88;;;;;;;;;;3332568;42;20104;-58
2022/08/04 03:58:47;;;;;;;13.27;7.55;;;;;;;;;;3334240;42;20111;-58
2022/08/04 04:01:42;;;;;;;13.07;7.72;;;;;;;;;;3338068;42;20104;-59
2022/08/04 04:04:17;;;;;;;14.43;7.82;;;;;;;;;;3338969;42;20590;-59
2022/08/04 04:07:11;;;;;;;15.67;8.37;;;;;;;;;;3341208;42;20090;-57
2022/08/04 04:09:46;;;;;;;16.42;8.35;;;;;;;;;;3337085;42;20100;-59
2022/08/04 04:12:23;;;;;;;13.35;7.50;;;;;;;;;;3342339;42;20081;-56
2022/08/04 04:15:26;;;;;;;14.40;7.32;;;;;;;;;;3319229;42;20572;-58
2022/08/04 04:18:23;;;;;;;13.18;7.07;;;;;;;;;;3329224;42;20104;-54
2022/08/04 04:21:11;;;;;;;12.23;7.10;;;;;;;;;;3335288;42;20092;-56
2022/08/04 04:24:25;;;;;;;15.77;8.13;;;;;;;;;;3320788;42;20097;-53
2022/08/04 04:26:57;;;;;;;12.40;7.28;;;;;;;;;;3320620;42;20105;-53
2022/08/04 04:29:45;;;;;;;22.30;8.43;;;;;;;;;;3333717;42;20159;-52
2022/08/04 04:32:27;;;;;;;14.00;7.95;;;;;;;;;;3330306;42;20093;-55
2022/08/04 04:35:19;;;;;;;15.03;7.20;;;;;;;;;;3331766;42;20089;-53
2022/08/04 04:37:45;;;;;;;15.27;7.70;;;;;;;;;;3332978;42;20092;-52
2022/08/04 04:40:33;;;;;;;14.80;8.50;;;;;;;;;;3324710;42;20101;-53
2022/08/04 04:43:14;;;;;;;14.40;8.20;;;;;;;;;;3327093;42;20100;-53
2022/08/04 04:46:13;;;;;;;12.65;7.28;;;;;;;;;;3326211;42;20101;-49
2022/08/04 04:49:19;;;;;;;14.57;7.50;;;;;;;;;;3342445;42;20096;-57
2022/08/04 04:51:57;;;;;;;21.65;7.55;;;;;;;;;;3334425;42;20081;-58
2022/08/04 04:54:32;;;;;;;16.40;8.18;;;;;;;;;;3341380;42;20108;-57
2022/08/04 04:57:18;;;;;;;15.90;7.43;;;;;;;;;;3326029;42;20085;-57
2022/08/04 04:59:58;;;;;;;21.00;8.35;;;;;;;;;;3330781;42;20097;-58
2022/08/04 05:02:43;;;;;;;19.37;9.23;;;;;;;;;;3330060;42;20156;-55
2022/08/04 05:05:37;;;;;;;13.55;6.78;;;;;;;;;;3326228;42;20128;-57
2022/08/04 05:08:25;;;;;;;21.83;9.38;;;;;;;;;;3333124;42;20153;-59
2022/08/04 05:11:06;;;;;;;20.60;10.98;;;;;;;;;;3333483;42;20499;-56
2022/08/04 05:13:46;;;;;;;23.10;10.25;;;;;;;;;;3330748;42;20100;-58
2022/08/04 05:16:39;;;;;;;18.93;9.47;;;;;;;;;;3322364;42;20548;-58
2022/08/04 05:19:24;;;;;;;16.08;7.15;;;;;;;;;;3329571;42;20152;-58
2022/08/04 05:21:56;;;;;;;17.02;7.88;;;;;;;;;;3341645;42;20100;-56
2022/08/04 05:24:22;;;;;;;28.92;11.15;;;;;;;;;;3322241;42;20085;-56
2022/08/04 05:26:54;;;;;;;23.55;10.90;;;;;;;;;;3322490;42;20085;-58
2022/08/04 05:29:53;;;;;;;16.17;7.10;;;;;;;;;;3313574;42;20089;-57
2022/08/04 05:32:23;;;;;;;21.60;9.00;;;;;;;;;;3323192;42;20109;-58
2022/08/04 05:34:56;;;;;;;16.98;8.98;;;;;;;;;;3318625;42;20096;-61
2022/08/04 05:37:22;;;;;;;17.20;8.60;;;;;;;;;;3321947;42;20088;-58
2022/08/04 05:40:02;;;;;;;18.95;8.60;;;;;;;;;;3314683;42;20400;-61
2022/08/04 05:42:28;;;;;;;22.77;9.53;;;;;;;;;;3320434;42;20092;-56
2022/08/04 05:44:54;;;;;;;20.50;7.95;;;;;;;;;;3324077;42;20089;-54
2022/08/04 05:47:21;;;;;;;22.58;8.55;;;;;;;;;;3324808;42;20092;-53
2022/08/04 05:49:47;;;;;;;23.88;9.32;;;;;;;;;;3329774;42;20212;-57
2022/08/04 05:52:13;;;;;;;21.35;8.35;;;;;;;;;;3327728;42;20092;-51
2022/08/04 05:54:39;;;;;;;23.87;7.53;;;;;;;;;;3320071;42;20096;-53
2022/08/04 05:57:06;;;;;;;23.65;8.93;;;;;;;;;;3330636;42;20093;-52
2022/08/04 05:59:33;;;;;;;17.70;7.00;;;;;;;;;;3322773;42;20113;-52
2022/08/04 06:01:59;;;;;;;13.80;6.43;;;;;;;;;;3328177;42;20100;-54
2022/08/04 06:04:30;;;;;;;19.02;7.60;;;;;;;;;;3318213;42;20111;-49
2022/08/04 06:06:56;;;;;;;20.83;7.30;;;;;;;;;;3326309;42;20085;-53
2022/08/04 06:09:22;;;;;;;22.13;7.65;;;;;;;;;;3334453;42;20118;-54
2022/08/04 06:11:49;;;;;;;21.77;7.75;;;;;;;;;;3333721;42;20093;-55
2022/08/04 06:14:15;;;;;;;17.60;6.57;;;;;;;;;;3335663;42;20089;-56
2022/08/04 06:16:42;;;;;;;13.63;6.10;;;;;;;;;;3315584;42;20108;-58
2022/08/04 06:19:10;;;;;;;19.47;7.87;;;;;;;;;;3329654;42;20111;-53
2022/08/04 06:21:38;;;;;;;18.50;7.18;;;;;;;;;;3326564;42;20085;-56
2022/08/04 06:24:06;;;;;;;12.77;5.63;;;;;;;;;;3325391;42;20084;-57
2022/08/04 06:26:33;;;;;;;13.70;5.72;;;;;;;;;;3330828;42;20099;-58
2022/08/04 06:28:59;;;;;;;14.65;6.25;;;;;;;;;;3325017;42;20100;-57
2022/08/04 06:31:41;;;;;;;10.83;4.87;;;;;;;;;;3318604;42;20097;-56
2022/08/04 06:34:08;;;;;;;11.98;4.63;;;;;;;;;;3337901;42;20090;-58
2022/08/04 06:36:36;;;;;;;12.68;4.90;;;;;;;;;;3322904;42;20491;-59
2022/08/04 06:39:03;;;;;;;10.05;5.32;;;;;;;;;;3310238;42;20107;-58
2022/08/04 06:41:29;;;;;;;11.18;5.07;;;;;;;;;;3339332;42;20085;-58
2022/08/04 06:44:00;;;;;;;13.33;5.03;;;;;;;;;;3326358;42;20147;-57
2022/08/04 06:46:27;;;;;;;22.83;4.90;;;;;;;;;;3339365;42;20202;-57
2022/08/04 06:48:53;;;;;;;9.65;4.30;;;;;;;;;;3317349;42;20089;-58
2022/08/04 06:51:20;;;;;;;7.72;4.00;;;;;;;;;;3333509;42;20212;-59
2022/08/04 06:53:46;;;;;;;9.73;4.60;;;;;;;;;;3332772;42;20112;-58
2022/08/04 06:56:14;;;;;;;9.90;4.43;;;;;;;;;;3328566;42;20097;-58
2022/08/04 06:58:40;;;;;;;12.07;4.57;;;;;;;;;;3323812;42;20715;-58
2022/08/04 07:01:06;;;;;;;11.13;4.70;;;;;;;;;;3314468;42;20568;-58
2022/08/04 07:03:32;;;;;;;10.98;4.55;;;;;;;;;;3332378;42;20181;-58
2022/08/04 07:05:59;;;;;;;11.60;4.93;;;;;;;;;;3317295;42;20097;-58
2022/08/04 07:08:25;;;;;;;9.13;4.80;;;;;;;;;;3338299;42;20089;-57
2022/08/04 07:10:52;;;;;;;11.48;5.13;;;;;;;;;;3330628;42;20092;-56
2022/08/04 07:13:18;;;;;;;12.57;5.50;;;;;;;;;;3331194;42;20097;-58
2022/08/04 07:15:44;;;;;;;10.43;5.38;;;;;;;;;;3323785;42;20140;-58
2022/08/04 07:18:11;;;;;;;15.65;5.53;;;;;;;;;;3330715;42;20184;-59
2022/08/04 07:20:42;;;;;;;9.07;4.83;;;;;;;;;;3323871;42;20101;-57
2022/08/04 07:23:11;;;;;;;7.25;4.03;;;;;;;;;;3318472;42;20085;-60
2022/08/04 07:25:38;;;;;;;9.05;4.80;;;;;;;;;;3328959;42;20141;-59
2022/08/04 07:28:04;;;;;;;10.02;4.22;;;;;;;;;;3328765;42;20096;-60
2022/08/04 07:30:30;;;;;;;11.38;4.20;;;;;;;;;;3332892;42;20561;-59
2022/08/04 07:32:56;;;;;;;6.43;2.87;;;;;;;;;;3319789;42;20106;-59
2022/08/04 07:35:22;;;;;;;7.47;3.55;;;;;;;;;;3323945;42;20101;-59
2022/08/04 07:37:48;;;;;;;6.35;3.42;;;;;;;;;;3336656;42;20096;-59
2022/08/04 07:40:15;;;;;;;7.07;2.80;;;;;;;;;;3327645;42;20184;-60
2022/08/04 07:42:42;;;;;;;7.90;2.88;;;;;;;;;;3332947;42;20159;-60
2022/08/04 07:45:09;;;;;;;8.13;2.80;;;;;;;;;;3332204;42;20167;-59
2022/08/04 07:47:36;;;;;;;6.53;2.80;;;;;;;;;;3321858;42;20093;-59
2022/08/04 07:50:02;;;;;;;7.50;3.10;;;;;;;;;;3337935;42;20163;-56
2022/08/04 07:52:29;;;;;;;6.82;3.13;;;;;;;;;;3326362;42;21025;-56
2022/08/04 07:54:55;;;;;;;7.40;3.00;;;;;;;;;;3332826;42;20093;-54
2022/08/04 07:57:21;;;;;;;8.03;2.90;;;;;;;;;;3314896;42;20089;-54
2022/08/04 07:59:47;;;;;;;6.97;2.90;;;;;;;;;;3333560;42;20095;-55
2022/08/04 08:02:14;;;;;;;8.48;2.83;;;;;;;;;;3325240;42;20101;-52
2022/08/04 08:04:40;;;;;;;6.85;2.85;;;;;;;;;;3333689;42;20187;-54
2022/08/04 08:07:06;;;;;;;8.07;2.80;;;;;;;;;;3332227;42;20100;-52
2022/08/04 08:09:33;;;;;;;8.13;2.90;;;;;;;;;;3338118;42;20089;-58
2022/08/04 08:11:59;;;;;;;9.27;3.10;;;;;;;;;;3332613;42;20091;-54
2022/08/04 08:14:25;;;;;;;6.75;3.00;;;;;;;;;;3338008;42;20555;-54
2022/08/04 08:16:52;;;;;;;8.70;2.90;;;;;;;;;;3330205;42;20115;-53
2022/08/04 08:19:18;;;;;;;6.30;2.80;;;;;;;;;;3324758;42;20097;-59
2022/08/04 08:21:50;;;;;;;7.40;2.67;;;;;;;;;;3331030;42;20096;-58
2022/08/04 08:24:16;;;;;;;7.47;2.70;;;;;;;;;;3333377;42;20535;-57
2022/08/04 08:26:43;;;;;;;5.50;2.60;;;;;;;;;;3325996;42;20107;-56
2022/08/04 08:29:09;;;;;;;6.97;2.85;;;;;;;;;;3328519;42;20085;-59
2022/08/04 08:31:35;;;;;;;8.98;3.30;;;;;;;;;;3331260;42;20140;-59
2022/08/04 08:34:01;;;;;;;5.33;2.50;;;;;;;;;;3330885;42;20092;-59
2022/08/04 08:36:38;;;;;;;6.35;2.95;;;;;;;;;;3332549;42;20089;-59
2022/08/04 08:39:06;;;;;;;6.32;2.60;;;;;;;;;;3328238;42;20099;-59
2022/08/04 08:41:54;;;;;;;7.97;2.72;;;;;;;;;;3327397;42;20225;-59
2022/08/04 08:44:56;;;;;;;5.65;2.40;;;;;;;;;;3339153;42;20082;-57
2022/08/04 08:47:57;;;;;;;7.57;2.73;;;;;;;;;;3330064;42;20571;-65
2022/08/04 08:50:54;;;;;;;8.15;2.72;;;;;;;;;;3325907;42;20096;-59
2022/08/04 08:53:33;;;;;;;7.10;2.58;;;;;;;;;;3340093;42;20128;-60
2022/08/04 08:56:32;;;;;;;6.43;2.60;;;;;;;;;;3337194;42;20085;-59
2022/08/04 08:59:29;;;;;;;6.43;2.50;;;;;;;;;;3331439;42;20515;-58
2022/08/04 09:02:38;;;;;;;7.43;2.63;;;;;;;;;;3328521;42;20103;-57
2022/08/04 09:05:13;;;;;;;5.50;2.42;;;;;;;;;;3313752;42;20559;-58
2022/08/04 09:07:45;;;;;;;6.20;2.65;;;;;;;;;;3334203;42;20085;-57
2022/08/04 09:10:29;;;;;;;7.00;2.63;;;;;;;;;;3339207;42;20112;-58
2022/08/04 09:13:03;;;;;;;8.23;2.50;;;;;;;;;;3335753;42;20651;-57
2022/08/04 09:15:41;;;;;;;8.97;2.70;;;;;;;;;;3319431;42;20097;-57
2022/08/04 09:18:21;;;;;;;7.47;2.40;;;;;;;;;;3321761;42;20113;-58
2022/08/04 09:21:05;;;;;;;8.25;2.80;;;;;;;;;;3328739;42;20160;-59
2022/08/04 09:23:50;;;;;;;9.52;2.83;;;;;;;;;;3329881;42;20606;-57
2022/08/04 09:26:33;;;;;;;7.07;2.65;;;;;;;;;;3338486;42;20100;-58
2022/08/04 09:29:34;;;;;;;5.60;2.63;;;;;;;;;;3332585;42;20152;-59
2022/08/04 09:32:34;;;;;;;5.95;2.55;;;;;;;;;;3325970;42;20089;-59
2022/08/04 09:35:18;;;;;;;6.75;2.70;;;;;;;;;;3327773;42;20085;-57
2022/08/04 09:37:53;;;;;;;6.18;2.83;;;;;;;;;;3335562;42;20088;-57
2022/08/04 09:40:25;;;;;;;6.38;2.60;;;;;;;;;;3327790;42;20123;-59
2022/08/04 09:43:12;;;;;;;5.60;2.60;;;;;;;;;;3331023;42;20104;-58
2022/08/04 09:45:59;;;;;;;7.55;2.63;;;;;;;;;;3324061;42;20093;-59
2022/08/04 09:48:57;;;;;;;5.82;2.75;;;;;;;;;;3323950;42;20100;-59
2022/08/04 09:51:54;;;;;;;6.20;2.80;;;;;;;;;;3329815;42;20103;-57
2022/08/04 09:54:55;;;;;;;7.28;2.80;;;;;;;;;;3328464;42;20567;-59
2022/08/04 09:57:25;;;;;;;6.67;2.50;;;;;;;;;;3332728;42;20080;-58
2022/08/04 10:00:02;;;;;;;8.15;2.70;;;;;;;;;;3338040;42;20488;-64
2022/08/04 10:02:31;;;;;;;7.95;2.63;;;;;;;;;;3324057;42;20089;-59
2022/08/04 10:04:58;;;;;;;5.93;2.83;;;;;;;;;;3311231;42;20576;-58
2022/08/04 10:07:28;;;;;;;6.00;2.70;;;;;;;;;;3319091;42;20089;-58
2022/08/04 10:10:27;;;;;;;8.07;2.90;;;;;;;;;;3320923;42;20108;-58
2022/08/04 10:13:15;;;;;;;7.93;2.58;;;;;;;;;;3318266;42;20112;-58
2022/08/04 10:16:06;;;;;;;9.15;3.58;;;;;;;;;;3335138;42;20100;-57
2022/08/04 10:18:47;;;;;;;8.55;3.67;;;;;;;;;;3325858;42;20659;-57
2022/08/04 10:21:35;;;;;;;8.98;3.33;;;;;;;;;;3342189;42;20151;-59
2022/08/04 10:24:28;;;;;;;6.00;2.93;;;;;;;;;;3319838;42;20552;-57
2022/08/04 10:27:08;;;;;;;10.63;3.75;;;;;;;;;;3325531;42;20089;-59
2022/08/04 10:29:45;;;;;;;8.93;3.63;;;;;;;;;;3330733;42;20093;-58
2022/08/04 10:32:22;;;;;;;8.05;3.92;;;;;;;;;;3334703;42;20089;-58
2022/08/04 10:35:10;;;;;;;10.32;3.58;;;;;;;;;;3317889;42;20104;-59
2022/08/04 10:38:08;;;;;;;9.20;4.07;;;;;;;;;;3344785;42;20084;-58
2022/08/04 10:40:45;;;;;;;8.57;4.10;;;;;;;;;;3329151;42;20092;-59
2022/08/04 10:43:18;;;;;;;8.75;4.55;;;;;;;;;;3318959;42;20100;-61
2022/08/04 10:45:55;;;;;;;7.85;4.15;;;;;;;;;;3327751;42;20096;-58
2022/08/04 10:48:30;;;;;;;8.13;4.00;;;;;;;;;;3322579;42;20187;-59
2022/08/04 10:51:05;;;;;;;8.60;3.40;;;;;;;;;;3334356;42;20100;-59
2022/08/04 10:53:31;;;;;;;7.57;3.00;;;;;;;;;;3333494;42;20893;-59
2022/08/04 10:56:28;;;;;;;7.75;3.25;;;;;;;;;;3327797;42;20642;-54
2022/08/04 10:58:59;;;;;;;9.57;3.00;;;;;;;;;;3329392;42;20093;-58
2022/08/04 11:01:30;;;;;;;6.63;3.10;;;;;;;;;;3305555;42;20509;-58
2022/08/04 11:03:59;;;;;;;7.20;2.87;;;;;;;;;;3326176;42;20135;-59
2022/08/04 11:06:25;;;;;;;7.28;3.10;;;;;;;;;;3308546;42;20184;-59
2022/08/04 11:08:53;;;;;;;5.93;3.00;;;;;;;;;;3321103;42;20101;-58
2022/08/04 11:11:44;;;;;;;8.25;2.75;;;;;;;;;;3322165;42;20097;-59
2022/08/04 11:14:14;;;;;;;9.48;2.90;;;;;;;;;;3316733;42;20099;-59
2022/08/04 11:16:43;;;;;;;6.97;3.10;;;;;;;;;;3326362;42;20195;-59
2022/08/04 11:19:23;;;;;;;6.13;2.90;;;;;;;;;;3328544;42;20220;-58
2022/08/04 11:22:09;;;;;;;6.32;2.95;;;;;;;;;;3330601;42;20089;-60
2022/08/04 11:24:49;;;;;;;6.82;3.13;;;;;;;;;;3316250;42;20088;-60
2022/08/04 11:27:27;;;;;;;6.38;2.67;;;;;;;;;;3323937;42;20511;-60
2022/08/04 11:30:07;;;;;;;8.10;3.00;;;;;;;;;;3330724;42;20148;-58
2022/08/04 11:32:42;;;;;;;6.47;3.08;;;;;;;;;;3324144;42;20100;-59
2022/08/04 11:35:12;;;;;;;8.75;3.20;;;;;;;;;;3324659;42;20088;-59
2022/08/04 11:37:45;;;;;;;7.00;3.03;;;;;;;;;;3318471;42;20077;-60
2022/08/04 11:40:26;;;;;;;10.35;2.97;;;;;;;;;;3316703;42;20089;-57
2022/08/04 11:43:05;;;;;;;6.80;3.30;;;;;;;;;;3324039;42;20594;-56
2022/08/04 11:45:59;;;;;;;6.50;3.05;;;;;;;;;;3325587;42;20103;-59
2022/08/04 11:48:31;;;;;;;9.98;3.22;;;;;;;;;;3326221;42;20091;-59
2022/08/04 11:50:57;;;;;;;9.23;3.40;;;;;;;;;;3326212;42;20234;-59
2022/08/04 11:53:25;;;;;;;7.60;3.10;;;;;;;;;;3318434;42;20081;-58
2022/08/04 11:55:52;;;;;;;7.60;3.00;;;;;;;;;;3318885;42;20119;-56
2022/08/04 11:58:19;;;;;;;8.07;3.35;;;;;;;;;;3333060;42;20097;-59
2022/08/04 12:01:03;;;;;;;8.27;3.63;;;;;;;;;;3331760;42;20095;-59
2022/08/04 12:04:03;;;;;;;8.13;3.38;;;;;;;;;;3331547;42;20093;-60
2022/08/04 12:07:00;;;;;;;9.32;2.97;;;;;;;;;;3332941;42;20568;-58
2022/08/04 12:09:32;;;;;;;6.87;3.07;;;;;;;;;;3326788;42;20089;-59
2022/08/04 12:12:07;;;;;;;7.82;3.17;;;;;;;;;;3331890;42;20093;-58
2022/08/04 12:14:50;;;;;;;10.02;3.42;;;;;;;;;;3338316;42;20193;-58
2022/08/04 12:17:24;;;;;;;7.03;3.13;;;;;;;;;;3332036;42;20093;-59
2022/08/04 12:19:53;;;;;;;7.07;3.25;;;;;;;;;;3324073;42;20089;-59
2022/08/04 12:22:24;;;;;;;9.40;3.23;;;;;;;;;;3340007;42;20085;-57
2022/08/04 12:25:04;;;;;;;10.27;4.30;;;;;;;;;;3332383;42;20085;-59
2022/08/04 12:28:01;;;;;;;10.43;3.80;;;;;;;;;;3325085;42;20144;-59
2022/08/04 12:30:29;;;;;;;7.78;4.35;;;;;;;;;;3319047;42;20081;-58
2022/08/04 12:33:19;;;;;;;10.70;3.70;;;;;;;;;;3323009;42;20115;-58
2022/08/04 12:35:59;;;;;;;7.03;3.10;;;;;;;;;;3331929;42;20192;-55
2022/08/04 12:38:26;;;;;;;12.00;4.22;;;;;;;;;;3330256;42;20085;-55
2022/08/04 12:40:54;;;;;;;8.50;4.40;;;;;;;;;;3329617;42;20097;-54
2022/08/04 12:43:41;;;;;;;14.85;4.63;;;;;;;;;;3326824;42;20089;-54
2022/08/04 12:46:09;;;;;;;10.40;4.20;;;;;;;;;;3328236;42;20099;-57
2022/08/04 12:48:36;;;;;;;9.10;3.73;;;;;;;;;;3336281;42;20104;-54
2022/08/04 12:51:03;;;;;;;10.68;4.55;;;;;;;;;;3331498;42;20085;-54
2022/08/04 12:53:36;;;;;;;11.82;4.82;;;;;;;;;;3321160;42;20564;-53
2022/08/04 12:56:02;;;;;;;11.18;4.82;;;;;;;;;;3332547;42;20519;-54
2022/08/04 12:58:32;;;;;;;10.27;4.80;;;;;;;;;;3320900;42;20093;-54
2022/08/04 13:01:04;;;;;;;11.93;5.33;;;;;;;;;;3324519;42;20089;-53
2022/08/04 13:03:40;;;;;;;14.40;5.53;;;;;;;;;;3314552;42;20556;-55
2022/08/04 13:06:07;;;;;;;10.02;5.10;;;;;;;;;;3331871;42;20103;-54
2022/08/04 13:08:36;;;;;;;12.30;5.50;;;;;;;;;;3328081;42;20257;-55
2022/08/04 13:11:03;;;;;;;12.13;5.68;;;;;;;;;;3334702;42;20111;-55
2022/08/04 13:13:31;;;;;;;9.40;4.90;;;;;;;;;;3324399;42;20200;-52
2022/08/04 13:15:59;;;;;;;11.32;5.40;;;;;;;;;;3332372;42;20093;-54
2022/08/04 13:18:27;;;;;;;12.30;5.50;;;;;;;;;;3334291;42;20132;-53
2022/08/04 13:20:53;;;;;;;11.98;5.82;;;;;;;;;;3316502;42;20097;-53
2022/08/04 13:23:19;;;;;;;10.27;5.40;;;;;;;;;;3330639;42;20085;-55
2022/08/04 13:25:47;;;;;;;10.60;4.93;;;;;;;;;;3340524;42;20147;-55
2022/08/04 13:28:25;;;;;;;10.90;5.53;;;;;;;;;;3331784;42;20096;-55
2022/08/04 13:30:56;;;;;;;12.10;5.22;;;;;;;;;;3323809;42;20093;-54
2022/08/04 13:33:33;;;;;;;9.27;4.70;;;;;;;;;;3323822;42;20913;-59
2022/08/04 13:35:59;;;;;;;10.25;4.95;;;;;;;;;;3324991;42;20104;-59
2022/08/04 13:38:26;;;;;;;9.20;4.10;;;;;;;;;;3328711;42;20111;-59
2022/08/04 13:40:55;;;;;;;9.75;4.80;;;;;;;;;;3316195;42;20499;-59
2022/08/04 13:43:46;;;;;;;9.75;4.28;;;;;;;;;;3317723;42;20108;-54
2022/08/04 13:46:17;;;;;;;6.50;3.30;;;;;;;;;;3325416;42;20093;-56
2022/08/04 13:48:44;;;;;;;8.60;4.68;;;;;;;;;;3334468;42;20097;-56
2022/08/04 13:51:10;;;;;;;8.97;4.30;;;;;;;;;;3324483;42;20093;-57
2022/08/04 13:53:38;;;;;;;11.48;5.32;;;;;;;;;;3337071;42;20790;-62
2022/08/04 13:56:06;;;;;;;9.02;4.53;;;;;;;;;;3331329;42;20639;-53
2022/08/04 13:58:33;;;;;;;10.00;5.05;;;;;;;;;;3322654;42;20598;-54
2022/08/04 14:01:09;;;;;;;10.10;4.60;;;;;;;;;;3328311;42;20140;-56
2022/08/04 14:03:37;;;;;;;9.30;4.80;;;;;;;;;;3337190;42;20478;-52
2022/08/04 14:06:28;;;;;;;10.80;4.50;;;;;;;;;;3334152;42;20097;-57
2022/08/04 14:08:59;;;;;;;10.85;4.65;;;;;;;;;;3330897;42;20097;-55
2022/08/04 14:11:36;;;;;;;9.00;4.57;;;;;;;;;;3326780;42;20108;-57
2022/08/04 14:14:16;;;;;;;9.57;4.65;;;;;;;;;;3327999;42;20141;-58
2022/08/04 14:17:06;;;;;;;8.27;4.80;;;;;;;;;;3328696;42;20085;-58
2022/08/04 14:19:51;;;;;;;10.85;5.20;;;;;;;;;;3333083;42;20178;-57
2022/08/04 14:22:27;;;;;;;9.52;5.20;;;;;;;;;;3333082;42;20163;-56
2022/08/04 14:25:02;;;;;;;11.05;5.10;;;;;;;;;;3329657;42;20097;-55
2022/08/04 14:27:40;;;;;;;13.60;5.55;;;;;;;;;;3339573;42;20136;-56
2022/08/04 14:30:20;;;;;;;12.70;5.37;;;;;;;;;;3326661;42;20499;-55
2022/08/04 14:32:57;;;;;;;10.55;5.45;;;;;;;;;;3332365;42;20101;-57
2022/08/04 14:35:24;;;;;;;11.55;5.57;;;;;;;;;;3331087;42;20177;-54
2022/08/04 14:38:10;;;;;;;10.73;5.35;;;;;;;;;;3320667;42;20104;-57
2022/08/04 14:40:40;;;;;;;11.63;5.57;;;;;;;;;;3328326;42;20570;-57
2022/08/04 14:43:07;;;;;;;9.20;5.23;;;;;;;;;;3329514;42;20101;-58
2022/08/04 14:45:44;;;;;;;13.80;6.07;;;;;;;;;;3328751;42;20127;-56
2022/08/04 14:48:12;;;;;;;14.68;6.10;;;;;;;;;;3328774;42;20105;-55
2022/08/04 14:50:46;;;;;;;8.75;5.00;;;;;;;;;;3316633;42;20097;-57
2022/08/04 14:53:28;;;;;;;10.45;5.35;;;;;;;;;;3331006;42;20093;-56
2022/08/04 14:55:55;;;;;;;10.63;4.70;;;;;;;;;;3323391;42;20089;-56
2022/08/04 14:58:27;;;;;;;9.35;4.90;;;;;;;;;;3327303;42;20567;-59
2022/08/04 15:01:01;;;;;;;10.45;4.90;;;;;;;;;;3328827;42;20100;-55
2022/08/04 15:03:28;;;;;;;9.57;5.38;;;;;;;;;;3332075;42;20105;-53
2022/08/04 15:05:55;;;;;;;10.93;5.80;;;;;;;;;;3333606;42;20101;-52
2022/08/04 15:08:21;;;;;;;9.17;5.23;;;;;;;;;;3322071;42;20092;-57
2022/08/04 15:10:48;;;;;;;11.85;6.00;;;;;;;;;;3321754;42;20147;-57
2022/08/04 15:13:14;;;;;;;17.08;6.50;;;;;;;;;;3332413;42;20097;-54
2022/08/04 15:15:41;;;;;;;10.05;5.10;;;;;;;;;;3327017;42;20092;-57
2022/08/04 15:18:11;;;;;;;9.98;5.03;;;;;;;;;;3329813;42;20157;-57
2022/08/04 15:20:38;;;;;;;10.63;4.93;;;;;;;;;;3333199;42;20089;-57
2022/08/04 15:23:05;;;;;;;9.65;4.97;;;;;;;;;;3327354;42;20185;-56
2022/08/04 15:25:39;;;;;;;10.82;4.82;;;;;;;;;;3329762;42;20097;-55